CheckWX is a tool to help pilots better visualize weather data.  It is not intended as a substitute for an official pre-flight weather briefing.

01:11:50 UTC

KHLX METAR
Twin County Airport
Galax Hillsville, Virginia, USA
Current

37 mins ago

KHLX 240035Z AUTO 33004KT 10SM CLR 08/M13 A3025 RMK AO2 T00841130
Observed
Mar-24 @ 00:35 UTC
Wind
  • 330° at 4 KTS
Visibility
10 SM
Flight Rules
VFR
Cloud Levels
  • Clear skies
Temperature
C / 46°F
Dewpoint
-13°C / 9°F
Humidity
21%
Altimeter
30.25" Hg
Pressure
1024.42 hPa
Previous

57 mins ago

KHLX 240015Z AUTO 32006KT 10SM CLR 09/M13 A3025 RMK AO2 T00901135
Observed
Mar-24 @ 00:15 UTC
Wind
  • 320° at 6 KTS
Visibility
10 SM
Flight Rules
VFR
Cloud Levels
  • Clear skies
Temperature
C / 48°F
Dewpoint
-14°C / 7°F
Humidity
18%
Altimeter
30.25" Hg
Pressure
1024.42 hPa
Previous

1 hour ago

KHLX 232355Z AUTO 32006KT 10SM CLR 09/M13 A3024 RMK AO2 T00921135 10118 20092
Observed
Mar-23 @ 23:55 UTC
Wind
  • 320° at 6 KTS
Visibility
10 SM
Flight Rules
VFR
Cloud Levels
  • Clear skies
Temperature
C / 48°F
Dewpoint
-14°C / 7°F
Humidity
18%
Altimeter
30.24" Hg
Pressure
1024.02 hPa